createdAt,value
2018-04-14T00:00:07.808Z,10.50
2018-04-14T00:01:05.402Z,10.50
2018-04-14T00:02:05.911Z,10.50
2018-04-14T00:03:05.878Z,10.50
2018-04-14T00:04:10.956Z,10.50
2018-04-14T00:05:05.546Z,10.50
2018-04-14T00:06:05.312Z,10.50
2018-04-14T00:07:06.116Z,10.50
2018-04-14T00:08:05.783Z,10.50
2018-04-14T00:09:10.356Z,10.50
2018-04-14T00:10:08.311Z,10.50
2018-04-14T00:11:05.840Z,10.50
2018-04-14T00:12:07.651Z,10.50
2018-04-14T00:13:11.175Z,10.50
2018-04-14T00:14:05.570Z,10.50
2018-04-14T00:15:05.403Z,10.50
2018-04-14T00:16:05.954Z,10.50
2018-04-14T00:17:05.397Z,10.50
2018-04-14T00:18:05.240Z,10.50
2018-04-14T00:19:05.227Z,10.50
2018-04-14T00:20:05.598Z,10.50
2018-04-14T00:21:10.488Z,10.60
2018-04-14T00:22:11.287Z,10.60
2018-04-14T00:23:08.178Z,10.60
2018-04-14T00:24:10.902Z,10.60
2018-04-14T00:25:05.450Z,10.60
2018-04-14T00:26:11.117Z,10.60
2018-04-14T00:27:05.470Z,10.60
2018-04-14T00:28:05.727Z,10.60
2018-04-14T00:29:05.786Z,10.60
2018-04-14T00:30:08.435Z,10.60
2018-04-14T00:31:06.006Z,10.60
2018-04-14T00:32:08.351Z,10.60
2018-04-14T00:33:05.984Z,10.60
2018-04-14T00:34:05.700Z,10.60
2018-04-14T00:35:05.363Z,10.60
2018-04-14T00:36:05.921Z,10.60
2018-04-14T00:37:06.196Z,10.60
2018-04-14T00:38:12.988Z,10.60
2018-04-14T00:39:13.089Z,10.60
2018-04-14T00:40:05.665Z,10.60
2018-04-14T00:41:05.383Z,10.60
2018-04-14T00:42:05.529Z,10.60
2018-04-14T00:43:05.587Z,10.60
2018-04-14T00:44:05.318Z,10.60
2018-04-14T00:45:08.616Z,10.60
2018-04-14T00:46:08.603Z,10.60
2018-04-14T00:47:06.272Z,10.60
2018-04-14T00:48:08.626Z,10.60
2018-04-14T00:49:10.791Z,10.60
2018-04-14T00:50:10.458Z,10.60
2018-04-14T00:51:06.148Z,10.60
2018-04-14T00:52:11.244Z,10.60
2018-04-14T00:53:05.748Z,10.60
2018-04-14T00:54:08.772Z,10.60
2018-04-14T00:55:10.645Z,10.50
2018-04-14T00:56:10.973Z,10.50
2018-04-14T00:57:08.357Z,10.60
2018-04-14T00:58:10.967Z,10.60
2018-04-14T00:59:10.494Z,10.50
2018-04-14T01:00:05.488Z,10.60
2018-04-14T01:01:05.432Z,10.50
2018-04-14T01:02:05.544Z,10.60
2018-04-14T01:03:05.805Z,10.50
2018-04-14T01:04:05.850Z,10.60
2018-04-14T01:05:08.658Z,10.50
2018-04-14T01:06:05.169Z,10.50
2018-04-14T01:07:11.013Z,10.50
2018-04-14T01:08:05.483Z,10.50
2018-04-14T01:09:08.730Z,10.50
2018-04-14T01:10:05.696Z,10.50
2018-04-14T01:11:10.716Z,10.50
2018-04-14T01:12:12.879Z,10.50
2018-04-14T01:13:10.480Z,10.50
2018-04-14T01:14:10.829Z,10.50
2018-04-14T01:15:08.620Z,10.50
2018-04-14T01:16:05.149Z,10.50
2018-04-14T01:17:10.746Z,10.50
2018-04-14T01:18:05.403Z,10.50
2018-04-14T01:19:11.270Z,10.50
2018-04-14T01:20:05.808Z,10.50
2018-04-14T01:21:05.475Z,10.50
2018-04-14T01:22:05.595Z,10.50
2018-04-14T01:23:05.958Z,10.50
2018-04-14T01:24:05.952Z,10.50
2018-04-14T01:25:05.304Z,10.40
2018-04-14T01:26:06.120Z,10.40
2018-04-14T01:27:10.258Z,10.40
2018-04-14T01:28:08.130Z,10.40
2018-04-14T01:29:05.720Z,10.40
2018-04-14T01:30:08.218Z,10.40
2018-04-14T01:31:05.846Z,10.40
2018-04-14T01:32:05.338Z,10.40
2018-04-14T01:33:06.189Z,10.40
2018-04-14T01:34:08.506Z,10.40
2018-04-14T01:35:06.473Z,10.40
2018-04-14T01:36:11.139Z,10.40
2018-04-14T01:37:10.677Z,10.40
2018-04-14T01:38:06.061Z,10.40
2018-04-14T01:39:06.040Z,10.40
2018-04-14T01:40:11.181Z,10.40
2018-04-14T01:41:05.889Z,10.40
2018-04-14T01:42:05.576Z,10.40
2018-04-14T01:43:10.577Z,10.40
2018-04-14T01:44:10.918Z,10.40
2018-04-14T01:45:10.536Z,10.40
2018-04-14T01:46:11.056Z,10.40
2018-04-14T01:47:05.578Z,10.40
2018-04-14T01:48:06.437Z,10.40
2018-04-14T01:49:05.418Z,10.40
2018-04-14T01:50:05.651Z,10.40
2018-04-14T01:51:07.803Z,10.40
2018-04-14T01:52:12.871Z,10.40
2018-04-14T01:53:05.333Z,10.40
2018-04-14T01:54:05.629Z,10.50
2018-04-14T01:55:05.440Z,10.40
2018-04-14T01:56:05.980Z,10.40
2018-04-14T01:57:08.368Z,10.40
2018-04-14T01:58:11.069Z,10.40
2018-04-14T01:59:05.417Z,10.40
2018-04-14T02:00:07.738Z,10.40
2018-04-14T02:01:08.836Z,10.40
2018-04-14T02:02:05.394Z,10.40
2018-04-14T02:03:06.112Z,10.40
2018-04-14T02:04:05.365Z,10.40
2018-04-14T02:05:10.979Z,10.40
2018-04-14T02:06:05.603Z,10.40
2018-04-14T02:07:05.459Z,10.40
2018-04-14T02:08:05.649Z,10.40
2018-04-14T02:09:05.196Z,10.40
2018-04-14T02:10:10.710Z,10.40
2018-04-14T02:11:05.158Z,10.40
2018-04-14T02:12:05.674Z,10.40
2018-04-14T02:13:05.529Z,10.40
2018-04-14T02:14:10.352Z,10.40
2018-04-14T02:15:05.650Z,10.40
2018-04-14T02:16:10.279Z,10.40
2018-04-14T02:17:10.770Z,10.40
2018-04-14T02:18:05.386Z,10.40
2018-04-14T02:19:08.441Z,4.00
2018-04-14T02:20:08.453Z,10.40
2018-04-14T02:21:05.883Z,10.40
2018-04-14T02:22:10.897Z,10.40
2018-04-14T02:23:05.477Z,10.40
2018-04-14T02:24:10.409Z,10.40
2018-04-14T02:25:05.499Z,10.40
2018-04-14T02:26:06.059Z,10.40
2018-04-14T02:27:05.981Z,10.40
2018-04-14T02:28:05.756Z,10.40
2018-04-14T02:29:05.833Z,10.40
2018-04-14T02:30:05.123Z,10.40
2018-04-14T02:31:06.184Z,10.40
2018-04-14T02:32:10.854Z,10.40
2018-04-14T02:33:05.356Z,10.40
2018-04-14T02:34:08.586Z,10.40
2018-04-14T02:35:08.615Z,10.40
2018-04-14T02:36:06.100Z,10.40
2018-04-14T02:37:13.187Z,10.40
2018-04-14T02:38:05.804Z,10.40
2018-04-14T02:39:08.984Z,10.40
2018-04-14T02:40:05.504Z,10.40
2018-04-14T02:41:06.453Z,10.40
2018-04-14T02:42:08.594Z,10.40
2018-04-14T02:43:06.080Z,10.40
2018-04-14T02:44:05.418Z,10.40
2018-04-14T02:45:06.128Z,10.40
2018-04-14T02:46:05.263Z,10.40
2018-04-14T02:47:06.129Z,10.40
2018-04-14T02:48:05.520Z,10.40
2018-04-14T02:49:07.815Z,10.40
2018-04-14T02:50:05.812Z,10.40
2018-04-14T02:51:07.930Z,10.40
2018-04-14T02:52:05.393Z,10.30
2018-04-14T02:53:06.148Z,10.40
2018-04-14T02:54:05.653Z,10.40
2018-04-14T02:55:05.788Z,10.40
2018-04-14T02:56:05.923Z,10.40
2018-04-14T02:57:05.892Z,10.40
2018-04-14T02:58:09.782Z,10.40
2018-04-14T02:59:10.565Z,10.40
2018-04-14T03:00:11.256Z,10.40
2018-04-14T03:01:05.616Z,10.30
2018-04-14T03:02:05.475Z,10.30
2018-04-14T03:03:05.929Z,10.40
2018-04-14T03:04:11.316Z,10.40
2018-04-14T03:05:05.835Z,10.30
2018-04-14T03:06:10.874Z,10.30
2018-04-14T03:07:05.461Z,10.30
2018-04-14T03:08:11.178Z,10.30
2018-04-14T03:09:10.661Z,10.30
2018-04-14T03:10:08.370Z,10.30
2018-04-14T03:11:10.906Z,10.30
2018-04-14T03:12:08.500Z,10.30
2018-04-14T03:13:06.278Z,10.30
2018-04-14T03:14:05.925Z,10.30
2018-04-14T03:15:08.618Z,10.30
2018-04-14T03:16:05.217Z,10.30
2018-04-14T03:17:06.153Z,10.30
2018-04-14T03:18:05.331Z,10.30
2018-04-14T03:19:11.127Z,10.30
2018-04-14T03:20:05.652Z,10.30
2018-04-14T03:21:05.624Z,10.30
2018-04-14T03:22:05.430Z,10.30
2018-04-14T03:23:10.642Z,10.30
2018-04-14T03:24:13.733Z,10.30
2018-04-14T03:25:05.243Z,10.30
2018-04-14T03:26:08.629Z,10.30
2018-04-14T03:27:10.337Z,10.30
2018-04-14T03:28:05.834Z,10.30
2018-04-14T03:29:05.814Z,10.30
2018-04-14T03:30:10.749Z,10.30
2018-04-14T03:31:05.314Z,10.30
2018-04-14T03:32:05.221Z,10.30
2018-04-14T03:33:07.995Z,10.30
2018-04-14T03:34:05.590Z,10.30
2018-04-14T03:35:05.786Z,10.30
2018-04-14T03:36:08.594Z,10.30
2018-04-14T03:37:07.661Z,10.30
2018-04-14T03:38:06.112Z,10.30
2018-04-14T03:39:05.194Z,10.30
2018-04-14T03:40:05.916Z,10.30
2018-04-14T03:41:05.585Z,10.30
2018-04-14T03:42:05.214Z,10.30
2018-04-14T03:43:10.892Z,10.30
2018-04-14T03:44:06.516Z,10.30
2018-04-14T03:45:05.459Z,10.30
2018-04-14T03:46:05.317Z,10.30
2018-04-14T03:47:08.628Z,10.30
2018-04-14T03:48:10.449Z,10.30
2018-04-14T03:49:05.868Z,10.30
2018-04-14T03:50:05.808Z,10.30
2018-04-14T03:51:05.497Z,10.30
2018-04-14T03:52:11.129Z,10.30
2018-04-14T03:53:05.549Z,10.30
2018-04-14T03:54:05.502Z,10.30
2018-04-14T03:55:08.710Z,10.30
2018-04-14T03:56:10.427Z,10.30
2018-04-14T03:57:05.907Z,10.30
2018-04-14T03:58:11.277Z,10.30
2018-04-14T03:59:05.797Z,10.30
2018-04-14T04:00:10.347Z,10.30
2018-04-14T04:01:05.875Z,10.30
2018-04-14T04:02:05.926Z,10.30
2018-04-14T04:03:05.799Z,10.30
2018-04-14T04:04:05.344Z,10.20
2018-04-14T04:05:05.883Z,10.20
2018-04-14T04:06:05.611Z,10.20
2018-04-14T04:07:08.825Z,10.20
2018-04-14T04:08:08.285Z,10.20
2018-04-14T04:09:08.316Z,10.20
2018-04-14T04:10:10.864Z,10.20
2018-04-14T04:11:08.156Z,10.20
2018-04-14T04:12:05.664Z,10.20
2018-04-14T04:13:10.953Z,10.20
2018-04-14T04:14:10.493Z,10.20
2018-04-14T04:15:05.650Z,10.20
2018-04-14T04:16:05.258Z,10.20
2018-04-14T04:17:10.739Z,10.20
2018-04-14T04:18:05.279Z,10.10
2018-04-14T04:19:06.176Z,10.10
2018-04-14T04:20:05.981Z,10.10
2018-04-14T04:21:05.759Z,10.10
2018-04-14T04:22:10.684Z,10.10
2018-04-14T04:23:07.796Z,10.00
2018-04-14T04:24:05.312Z,10.10
2018-04-14T04:25:11.185Z,10.00
2018-04-14T04:26:05.596Z,10.10
2018-04-14T04:27:10.850Z,10.00
2018-04-14T04:28:05.450Z,10.00
2018-04-14T04:29:17.856Z,10.00
2018-04-14T04:30:07.906Z,10.00
2018-04-14T04:31:05.682Z,10.00
2018-04-14T04:32:06.108Z,10.00
2018-04-14T04:33:05.626Z,10.00
2018-04-14T04:34:05.999Z,10.00
2018-04-14T04:35:05.514Z,10.00
2018-04-14T04:36:10.660Z,10.00
2018-04-14T04:37:05.874Z,9.90
2018-04-14T04:38:05.488Z,10.00
2018-04-14T04:39:10.581Z,10.00
2018-04-14T04:40:05.563Z,9.90
2018-04-14T04:41:05.552Z,9.90
2018-04-14T04:42:06.077Z,9.90
2018-04-14T04:43:06.007Z,9.90
2018-04-14T04:44:08.616Z,9.90
2018-04-14T04:45:05.242Z,10.00
2018-04-14T04:46:10.417Z,9.90
2018-04-14T04:47:10.771Z,9.90
2018-04-14T04:48:06.193Z,10.00
2018-04-14T04:49:08.622Z,10.00
2018-04-14T04:50:05.241Z,9.90
2018-04-14T04:51:05.932Z,9.90
2018-04-14T04:52:05.789Z,10.00
2018-04-14T04:53:05.707Z,10.00
2018-04-14T04:54:08.027Z,10.00
2018-04-14T04:55:05.807Z,9.90
2018-04-14T04:56:05.246Z,10.00
2018-04-14T04:57:05.202Z,10.00
2018-04-14T04:58:06.182Z,10.00
2018-04-14T04:59:08.267Z,10.00
2018-04-14T05:00:05.982Z,10.00
2018-04-14T05:01:06.116Z,10.10
2018-04-14T05:02:06.031Z,10.10
2018-04-14T05:03:05.649Z,10.10
2018-04-14T05:04:06.203Z,10.10
2018-04-14T05:05:08.425Z,10.00
2018-04-14T05:06:06.067Z,10.10
2018-04-14T05:07:10.767Z,10.10
2018-04-14T05:08:10.478Z,10.10
2018-04-14T05:09:06.005Z,10.10
2018-04-14T05:10:08.633Z,10.10
2018-04-14T05:11:05.541Z,10.10
2018-04-14T05:12:05.570Z,10.10
2018-04-14T05:13:10.781Z,10.00
2018-04-14T05:14:06.126Z,10.10
2018-04-14T05:15:06.258Z,10.10
2018-04-14T05:16:05.284Z,10.10
2018-04-14T05:17:05.643Z,10.10
2018-04-14T05:18:10.964Z,10.10
2018-04-14T05:19:05.519Z,10.10
2018-04-14T05:20:07.813Z,10.20
2018-04-14T05:21:05.242Z,10.20
2018-04-14T05:22:05.382Z,10.20
2018-04-14T05:23:05.767Z,10.30
2018-04-14T05:24:05.675Z,10.30
2018-04-14T05:25:10.288Z,10.30
2018-04-14T05:26:05.755Z,10.30
2018-04-14T05:27:10.651Z,10.40
2018-04-14T05:28:08.626Z,10.40
2018-04-14T05:29:10.312Z,10.50
2018-04-14T05:30:06.136Z,10.50
2018-04-14T05:31:05.864Z,10.50
2018-04-14T05:32:10.415Z,10.50
2018-04-14T05:33:05.846Z,10.50
2018-04-14T05:34:06.101Z,10.60
2018-04-14T05:35:05.255Z,10.70
2018-04-14T05:36:08.265Z,10.80
2018-04-14T05:37:11.049Z,10.90
2018-04-14T05:38:05.516Z,10.90
2018-04-14T05:39:05.361Z,11.00
2018-04-14T05:40:08.385Z,11.40
2018-04-14T05:41:05.791Z,11.40
2018-04-14T05:42:06.192Z,11.60
2018-04-14T05:43:16.170Z,11.90
2018-04-14T05:44:10.732Z,12.10
2018-04-14T05:45:06.080Z,12.10
2018-04-14T05:46:05.760Z,12.20
2018-04-14T05:47:05.542Z,12.40
2018-04-14T05:48:05.960Z,12.60
2018-04-14T05:49:05.568Z,12.80
2018-04-14T05:50:13.068Z,13.10
2018-04-14T05:51:05.818Z,13.10
2018-04-14T05:52:08.584Z,13.40
2018-04-14T05:53:06.081Z,13.40
2018-04-14T05:54:06.144Z,13.60
2018-04-14T05:55:06.049Z,13.60
2018-04-14T05:56:10.356Z,13.80
2018-04-14T05:57:06.028Z,13.80
2018-04-14T05:58:05.525Z,13.90
2018-04-14T05:59:05.787Z,14.00
2018-04-14T06:00:05.600Z,14.10
2018-04-14T06:01:05.315Z,14.20
2018-04-14T06:02:07.831Z,14.40
2018-04-14T06:03:05.353Z,14.30
2018-04-14T06:04:08.145Z,14.50
2018-04-14T06:05:05.681Z,14.50
2018-04-14T06:06:05.561Z,14.50
2018-04-14T06:07:08.152Z,14.70
2018-04-14T06:08:05.571Z,14.70
2018-04-14T06:09:07.883Z,14.90
2018-04-14T06:10:05.490Z,14.90
2018-04-14T06:11:05.449Z,15.00
2018-04-14T06:12:10.457Z,15.10
2018-04-14T06:13:05.777Z,15.30
2018-04-14T06:14:05.583Z,15.30
2018-04-14T06:15:05.776Z,15.40
2018-04-14T06:16:05.943Z,15.50
2018-04-14T06:17:09.798Z,15.60
2018-04-14T06:18:05.409Z,15.60
2018-04-14T06:19:08.705Z,15.80
2018-04-14T06:20:07.927Z,15.80
2018-04-14T06:21:05.331Z,15.80
2018-04-14T06:22:06.156Z,15.80
2018-04-14T06:23:08.555Z,15.90
2018-04-14T06:24:11.349Z,15.90
2018-04-14T06:25:05.827Z,16.00
2018-04-14T06:26:10.660Z,16.10
2018-04-14T06:27:06.379Z,16.10
2018-04-14T06:28:15.685Z,16.30
2018-04-14T06:29:09.617Z,16.30
2018-04-14T06:30:05.421Z,16.30
2018-04-14T06:31:10.642Z,16.40
2018-04-14T06:32:06.164Z,16.40
2018-04-14T06:33:08.412Z,16.40
2018-04-14T06:34:07.076Z,16.40
2018-04-14T06:35:05.704Z,16.40
2018-04-14T06:36:05.652Z,16.30
2018-04-14T06:37:05.649Z,16.30
2018-04-14T06:38:05.878Z,16.30
2018-04-14T06:39:05.288Z,16.30
2018-04-14T06:40:06.816Z,16.30
2018-04-14T06:41:07.970Z,16.40
2018-04-14T06:42:05.584Z,16.40
2018-04-14T06:43:08.105Z,16.50
2018-04-14T06:44:05.873Z,16.50
2018-04-14T06:45:05.905Z,16.50
2018-04-14T06:46:11.338Z,16.50
2018-04-14T06:47:11.117Z,16.60
2018-04-14T06:48:06.018Z,16.60
2018-04-14T06:49:10.760Z,16.60
2018-04-14T06:50:05.459Z,16.60
2018-04-14T06:51:10.302Z,16.80
2018-04-14T06:52:10.663Z,16.80
2018-04-14T06:53:06.037Z,16.80
2018-04-14T06:54:06.249Z,16.80
2018-04-14T06:55:09.083Z,16.90
2018-04-14T06:56:05.627Z,16.90
2018-04-14T06:57:05.619Z,16.90
2018-04-14T06:58:08.903Z,17.00
2018-04-14T06:59:06.014Z,17.00
2018-04-14T07:00:06.121Z,17.00
2018-04-14T07:01:05.481Z,17.00
2018-04-14T07:02:05.387Z,17.00
2018-04-14T07:03:05.400Z,17.10
2018-04-14T07:04:06.067Z,17.10
2018-04-14T07:05:05.801Z,17.20
2018-04-14T07:06:10.570Z,17.20
2018-04-14T07:07:05.995Z,17.20
2018-04-14T07:08:05.556Z,17.30
2018-04-14T07:09:05.461Z,17.30
2018-04-14T07:10:10.328Z,17.30
2018-04-14T07:11:05.884Z,17.40
2018-04-14T07:12:05.996Z,17.40
2018-04-14T07:13:06.164Z,17.40
2018-04-14T07:14:05.301Z,17.40
2018-04-14T07:15:10.866Z,17.50
2018-04-14T07:16:05.397Z,17.50
2018-04-14T07:17:10.419Z,17.50
2018-04-14T07:18:08.515Z,17.60
2018-04-14T07:19:06.225Z,17.60
2018-04-14T07:20:05.306Z,17.60
2018-04-14T07:21:11.223Z,17.60
2018-04-14T07:22:05.982Z,17.70
2018-04-14T07:23:05.646Z,17.70
2018-04-14T07:24:09.009Z,17.70
2018-04-14T07:25:10.621Z,17.70
2018-04-14T07:26:05.845Z,17.70
2018-04-14T07:27:05.880Z,17.70
2018-04-14T07:28:10.767Z,17.70
2018-04-14T07:29:10.463Z,17.70
2018-04-14T07:30:06.000Z,17.70
2018-04-14T07:31:08.974Z,17.80
2018-04-14T07:32:06.202Z,17.80
2018-04-14T07:33:08.039Z,17.80
2018-04-14T07:34:05.652Z,17.80
2018-04-14T07:35:05.339Z,17.80
2018-04-14T07:36:11.313Z,17.80
2018-04-14T07:37:05.909Z,17.90
2018-04-14T07:38:10.640Z,17.80
2018-04-14T07:39:06.001Z,17.80
2018-04-14T07:40:06.029Z,17.90
2018-04-14T07:41:08.927Z,17.90
2018-04-14T07:42:05.651Z,17.80
2018-04-14T07:43:10.395Z,17.90
2018-04-14T07:44:05.940Z,17.90
2018-04-14T07:45:05.697Z,17.80
2018-04-14T07:46:05.967Z,17.80
2018-04-14T07:47:05.843Z,17.90
2018-04-14T07:48:06.009Z,17.90
2018-04-14T07:49:05.541Z,17.90
2018-04-14T07:50:06.208Z,17.90
2018-04-14T07:51:09.387Z,18.00
2018-04-14T07:52:05.865Z,17.90
2018-04-14T07:53:06.474Z,18.00
2018-04-14T07:54:05.893Z,17.90
2018-04-14T07:55:06.409Z,17.90
2018-04-14T07:56:05.829Z,17.90
2018-04-14T07:57:09.060Z,17.90
2018-04-14T07:58:10.605Z,17.90
2018-04-14T07:59:06.002Z,17.90
2018-04-14T08:00:07.959Z,17.90
2018-04-14T08:01:10.726Z,17.90
2018-04-14T08:02:05.444Z,17.90
2018-04-14T08:03:07.949Z,18.00
2018-04-14T08:04:09.075Z,18.00
2018-04-14T08:05:13.366Z,18.00
2018-04-14T08:06:06.031Z,18.00
2018-04-14T08:07:05.278Z,18.00
2018-04-14T08:08:07.321Z,18.10
2018-04-14T08:09:06.146Z,18.10
2018-04-14T08:10:05.727Z,18.10
2018-04-14T08:11:05.928Z,18.10
2018-04-14T08:12:06.208Z,18.20
2018-04-14T08:13:06.145Z,18.20
2018-04-14T08:14:05.817Z,18.20
2018-04-14T08:15:05.277Z,18.20
2018-04-14T08:16:05.805Z,18.20
2018-04-14T08:17:05.634Z,18.20
2018-04-14T08:18:08.729Z,18.20
2018-04-14T08:19:07.823Z,18.20
2018-04-14T08:20:05.370Z,18.10
2018-04-14T08:21:05.566Z,18.20
2018-04-14T08:22:05.418Z,18.20
2018-04-14T08:23:11.355Z,18.20
2018-04-14T08:24:05.976Z,18.20
2018-04-14T08:25:10.479Z,18.30
2018-04-14T08:26:09.653Z,18.30
2018-04-14T08:27:11.248Z,18.30
2018-04-14T08:28:06.034Z,18.30
2018-04-14T08:29:05.862Z,18.30
2018-04-14T08:30:06.412Z,18.40
2018-04-14T08:31:09.138Z,18.40
2018-04-14T08:32:11.092Z,18.40
2018-04-14T08:33:10.775Z,18.40
2018-04-14T08:34:05.417Z,18.40
2018-04-14T08:35:11.149Z,18.40
2018-04-14T08:36:05.626Z,18.50
2018-04-14T08:37:10.955Z,18.50
2018-04-14T08:38:05.882Z,18.40
2018-04-14T08:39:10.964Z,18.50
2018-04-14T08:40:05.163Z,18.50
2018-04-14T08:41:05.678Z,18.50
2018-04-14T08:42:11.219Z,18.50
2018-04-14T08:43:05.835Z,18.50
2018-04-14T08:44:10.552Z,18.50
2018-04-14T08:45:06.205Z,18.50
2018-04-14T08:46:10.719Z,18.50
2018-04-14T08:47:05.226Z,18.50
2018-04-14T08:48:05.553Z,18.50
2018-04-14T08:49:08.545Z,18.50
2018-04-14T08:50:06.138Z,18.50
2018-04-14T08:51:06.372Z,18.50
2018-04-14T08:52:05.893Z,18.60
2018-04-14T08:53:05.793Z,18.60
2018-04-14T08:54:11.089Z,18.60
2018-04-14T08:55:05.620Z,18.70
2018-04-14T08:56:05.757Z,18.70
2018-04-14T08:57:09.047Z,18.60
2018-04-14T08:58:05.661Z,18.70
2018-04-14T08:59:05.626Z,18.70
2018-04-14T09:00:08.028Z,18.60
2018-04-14T09:01:08.499Z,18.60
2018-04-14T09:02:05.515Z,18.60
2018-04-14T09:03:10.323Z,18.50
2018-04-14T09:04:05.566Z,18.50
2018-04-14T09:05:05.973Z,18.50
2018-04-14T09:06:05.922Z,18.50
2018-04-14T09:07:05.231Z,18.40
2018-04-14T09:08:06.265Z,18.40
2018-04-14T09:09:05.856Z,18.40
2018-04-14T09:10:05.672Z,18.30
2018-04-14T09:11:05.670Z,18.30
2018-04-14T09:12:10.444Z,18.30
2018-04-14T09:13:06.164Z,18.30
2018-04-14T09:14:10.548Z,18.30
2018-04-14T09:15:06.244Z,18.30
2018-04-14T09:16:05.888Z,18.40
2018-04-14T09:17:05.606Z,18.30
2018-04-14T09:18:05.959Z,18.40
2018-04-14T09:19:09.288Z,18.40
2018-04-14T09:20:11.082Z,18.40
2018-04-14T09:21:09.951Z,18.50
2018-04-14T09:22:10.819Z,18.50
2018-04-14T09:23:05.740Z,18.50
2018-04-14T09:24:08.722Z,18.50
2018-04-14T09:25:08.034Z,18.60
2018-04-14T09:26:09.142Z,18.60
2018-04-14T09:27:05.885Z,18.60
2018-04-14T09:28:05.698Z,18.60
2018-04-14T09:29:05.534Z,18.60
2018-04-14T09:30:06.016Z,18.60
2018-04-14T09:31:05.720Z,18.50
2018-04-14T09:32:10.470Z,18.40
2018-04-14T09:33:05.950Z,18.50
2018-04-14T09:34:05.648Z,18.40
2018-04-14T09:35:05.490Z,18.30
2018-04-14T09:36:11.165Z,18.20
2018-04-14T09:37:08.289Z,18.20
2018-04-14T09:38:05.857Z,18.10
2018-04-14T09:39:11.052Z,18.00
2018-04-14T09:40:05.717Z,18.10
2018-04-14T09:41:13.113Z,17.90
2018-04-14T09:42:05.741Z,18.00
2018-04-14T09:43:08.337Z,17.80
2018-04-14T09:44:06.038Z,17.90
2018-04-14T09:45:08.371Z,17.70
2018-04-14T09:46:05.896Z,17.70
2018-04-14T09:47:06.264Z,17.70
2018-04-14T09:48:11.145Z,17.60
2018-04-14T09:49:05.581Z,17.60
2018-04-14T09:50:10.520Z,17.50
2018-04-14T09:51:06.062Z,17.50
2018-04-14T09:52:13.279Z,17.40
2018-04-14T09:53:06.114Z,17.40
2018-04-14T09:54:05.596Z,17.50
2018-04-14T09:55:08.266Z,17.50
2018-04-14T09:56:08.390Z,17.50
2018-04-14T09:57:11.193Z,17.50
2018-04-14T09:58:08.362Z,17.60
2018-04-14T09:59:05.903Z,17.60
2018-04-14T10:00:10.934Z,17.70
2018-04-14T10:01:05.671Z,17.70
2018-04-14T10:02:10.809Z,17.80
2018-04-14T10:03:07.876Z,17.80
2018-04-14T10:04:05.663Z,17.80
2018-04-14T10:05:06.193Z,17.90
2018-04-14T10:06:10.432Z,18.00
2018-04-14T10:07:08.762Z,18.10
2018-04-14T10:08:08.869Z,18.20
2018-04-14T10:09:10.440Z,18.30
2018-04-14T10:10:05.847Z,18.30
2018-04-14T10:11:05.347Z,18.40
2018-04-14T10:12:06.155Z,18.40
2018-04-14T10:13:05.374Z,18.50
2018-04-14T10:14:06.343Z,18.50
2018-04-14T10:15:05.666Z,18.50
2018-04-14T10:16:06.189Z,18.50
2018-04-14T10:17:10.409Z,18.60
2018-04-14T10:18:06.054Z,18.50
2018-04-14T10:19:08.335Z,18.70
2018-04-14T10:20:08.449Z,18.70
2018-04-14T10:21:08.884Z,18.70
2018-04-14T10:22:10.624Z,18.80
2018-04-14T10:23:11.192Z,18.80
2018-04-14T10:24:05.857Z,18.80
2018-04-14T10:25:09.242Z,18.90
2018-04-14T10:26:06.152Z,18.90
2018-04-14T10:27:11.274Z,18.90
2018-04-14T10:28:05.843Z,18.90
2018-04-14T10:29:05.883Z,19.00
2018-04-14T10:30:05.708Z,19.00
2018-04-14T10:31:05.409Z,19.00
2018-04-14T10:32:08.380Z,18.90
2018-04-14T10:33:10.943Z,18.90
2018-04-14T10:34:05.326Z,18.90
2018-04-14T10:35:05.326Z,18.90
2018-04-14T10:36:05.345Z,18.90
2018-04-14T10:37:11.176Z,18.90
2018-04-14T10:38:13.576Z,18.90
2018-04-14T10:39:06.034Z,19.00
2018-04-14T10:40:05.822Z,18.90
2018-04-14T10:41:05.379Z,19.00
2018-04-14T10:42:08.750Z,19.00
2018-04-14T10:43:10.528Z,19.00
2018-04-14T10:44:06.049Z,19.00
2018-04-14T10:45:05.989Z,19.10
2018-04-14T10:46:10.852Z,19.10
2018-04-14T10:47:11.474Z,19.20
2018-04-14T10:48:06.311Z,19.30
2018-04-14T10:49:05.475Z,19.30
2018-04-14T10:50:05.511Z,19.40
2018-04-14T10:51:05.261Z,19.40
2018-04-14T10:52:10.659Z,19.50
2018-04-14T10:53:05.339Z,19.50
2018-04-14T10:54:11.053Z,19.50
2018-04-14T10:55:05.545Z,19.50
2018-04-14T10:56:05.242Z,19.60
2018-04-14T10:57:08.809Z,19.60
2018-04-14T10:58:05.351Z,19.60
2018-04-14T10:59:05.924Z,19.60
2018-04-14T11:00:10.980Z,19.60
2018-04-14T11:01:05.630Z,19.70
2018-04-14T11:02:10.895Z,19.80
2018-04-14T11:03:05.627Z,19.80
2018-04-14T11:04:08.270Z,19.70
2018-04-14T11:05:08.354Z,19.70
2018-04-14T11:06:05.883Z,19.70
2018-04-14T11:07:05.620Z,19.70
2018-04-14T11:08:05.368Z,19.70
2018-04-14T11:09:05.542Z,19.70
2018-04-14T11:10:05.441Z,19.70
2018-04-14T11:11:09.566Z,19.70
2018-04-14T11:12:05.177Z,19.70
2018-04-14T11:13:05.399Z,19.80
2018-04-14T11:14:08.991Z,19.80
2018-04-14T11:15:08.847Z,19.80
2018-04-14T11:16:05.442Z,19.80
2018-04-14T11:17:07.986Z,19.70
2018-04-14T11:18:05.671Z,19.70
2018-04-14T11:19:06.262Z,19.70
2018-04-14T11:20:06.146Z,19.70
2018-04-14T11:21:10.974Z,19.70
2018-04-14T11:22:05.488Z,19.70
2018-04-14T11:23:08.496Z,19.70
2018-04-14T11:24:07.862Z,19.70
2018-04-14T11:25:05.868Z,19.70
2018-04-14T11:26:05.210Z,19.70
2018-04-14T11:27:05.431Z,19.70
2018-04-14T11:28:08.091Z,19.80
2018-04-14T11:29:05.538Z,19.80
2018-04-14T11:30:06.012Z,19.80
2018-04-14T11:31:05.831Z,19.90
2018-04-14T11:32:05.972Z,19.90
2018-04-14T11:33:05.524Z,19.80
2018-04-14T11:34:05.370Z,19.80
2018-04-14T11:35:06.073Z,19.70
2018-04-14T11:36:08.863Z,19.60
2018-04-14T11:37:08.602Z,19.60
2018-04-14T11:38:05.221Z,19.60
2018-04-14T11:39:06.022Z,19.50
2018-04-14T11:40:08.570Z,19.50
2018-04-14T11:41:06.146Z,19.50
2018-04-14T11:42:05.863Z,19.40
2018-04-14T11:43:05.616Z,19.40
2018-04-14T11:44:10.598Z,19.40
2018-04-14T11:45:06.223Z,19.40
2018-04-14T11:46:05.431Z,19.40
2018-04-14T11:47:11.077Z,19.40
2018-04-14T11:48:11.709Z,19.60
2018-04-14T11:49:05.226Z,19.60
2018-04-14T11:50:08.265Z,19.70
2018-04-14T11:51:13.578Z,19.70
2018-04-14T11:52:06.457Z,19.70
2018-04-14T11:53:11.166Z,19.70
2018-04-14T11:54:08.255Z,19.70
2018-04-14T11:55:05.252Z,19.70
2018-04-14T11:56:05.816Z,19.70
2018-04-14T11:57:08.116Z,19.60
2018-04-14T11:58:10.687Z,19.60
2018-04-14T11:59:11.236Z,19.70
2018-04-14T12:00:13.753Z,19.70
2018-04-14T12:01:10.341Z,19.70
2018-04-14T12:02:05.446Z,19.70
2018-04-14T12:03:05.601Z,19.80
2018-04-14T12:04:09.297Z,19.80
2018-04-14T12:05:08.608Z,19.80
2018-04-14T12:06:05.396Z,19.80
2018-04-14T12:07:10.858Z,19.80
2018-04-14T12:08:10.559Z,19.80
2018-04-14T12:09:10.982Z,19.80
2018-04-14T12:10:05.808Z,19.80
2018-04-14T12:11:06.058Z,19.90
2018-04-14T12:12:07.940Z,19.90
2018-04-14T12:13:10.606Z,19.90
2018-04-14T12:14:10.144Z,20.00
2018-04-14T12:15:05.605Z,20.00
2018-04-14T12:16:05.713Z,20.10
2018-04-14T12:17:05.682Z,20.10
2018-04-14T12:18:05.401Z,20.10
2018-04-14T12:19:10.425Z,20.10
2018-04-14T12:20:11.256Z,20.20
2018-04-14T12:21:11.151Z,20.10
2018-04-14T12:22:11.021Z,20.00
2018-04-14T12:23:05.585Z,20.00
2018-04-14T12:24:05.891Z,19.90
2018-04-14T12:25:08.636Z,19.80
2018-04-14T12:26:05.314Z,19.80
2018-04-14T12:27:05.640Z,19.80
2018-04-14T12:28:10.306Z,19.70
2018-04-14T12:29:05.856Z,19.70
2018-04-14T12:30:05.861Z,19.60
2018-04-14T12:31:10.685Z,19.60
2018-04-14T12:32:11.149Z,19.60
2018-04-14T12:33:10.699Z,19.60
2018-04-14T12:34:11.174Z,19.60
2018-04-14T12:35:08.130Z,19.70
2018-04-14T12:36:05.620Z,19.70
2018-04-14T12:37:11.235Z,19.70
2018-04-14T12:38:10.800Z,19.70
2018-04-14T12:39:08.752Z,19.70
2018-04-14T12:40:07.840Z,19.70
2018-04-14T12:41:05.338Z,19.70
2018-04-14T12:42:07.996Z,19.70
2018-04-14T12:43:06.025Z,19.70
2018-04-14T12:44:06.163Z,19.60
2018-04-14T12:45:06.084Z,19.60
2018-04-14T12:46:06.342Z,19.60
2018-04-14T12:47:11.165Z,19.50
2018-04-14T12:48:05.766Z,19.60
2018-04-14T12:49:08.730Z,19.70
2018-04-14T12:50:09.496Z,19.70
2018-04-14T12:51:05.368Z,19.70
2018-04-14T12:52:06.300Z,19.70
2018-04-14T12:53:06.042Z,19.80